Pulleys Mill, Illinois
Current Conditions -  °F | °C
As of 3:10 AM on Thursday 18 Dec 2014 (Local Time) from KMWA Reporting Station
Light Snow Light Snow  
Wind Chill:   Ceiling: 6000
Heat Index:   Visibility: 10mi
Dew Point: -2°   Wind: 0mph
Humidity: 87%   Direction: NA
Pressure: 30.3"   Gusts: NA
Location:  37.565°N, 88.982°W
Report Text: KMWA 180910Z AUTO 00000KT 10SM -SN BKN060 OVC070 00/M02 A3030 RMK AO2
Loading
Personal Weather Stations






























Interactive Weather Map New forecast layout! Learn more

10-Day Weather Forecast

Advertisements
Track Severe Weather on mobile